Noorvik, AK

11:09 AM AKDT die 28o August, anno 2015 (GMT -0800)
Baker Memorial | | Change Station
CLOSE
Current Station
Airport
Location: Kiana,
Elevation: 151 ft
Nearby Weather Stations

Elev 151 ft 66.98 °N, 160.44 °W | Updated 8 minutes ago

Overcast
Aequaliter Nubila
43 °F
Feels Like 39 °F
N
7
Ventus Variabilis Ventus from Magis Zephyrus quam Auster

Hodie
High -- | Low -- °F
--% Chance of Precip.
Yesterday
High -- | Low -- °F
Precip. -- in
6:58 AM 10:24 PM
Waxing Gibbous, 99% visible
Pressio 30.00 in
Visibilitas 10.0 milia passuum
Clouds Plerumque Nubila 300 ft
Plerumque Nubila 5000 ft
Aequaliter Nubila 8000 ft
Frigus Venti 39 °F
Frigus in quo Ros apparet 40 °F
Umor 89%
Rainfall 0.00 in
Snow Depth Not available.
UV 1 out of 12
Pollen Not available.
Air Quality Not available.
Flu Activity Not available.
METAR PAIK 281901Z AUTO 24006KT 10SM BKN003 BKN050 OVC080 06/04 A2988 RMK AO2 SLP158 T00610044 PNO $
Pressio 30.00 in
Visibilitas 10.0 milia passuum
Clouds Plerumque Nubila 300 ft
Plerumque Nubila 5000 ft
Aequaliter Nubila 8000 ft
Frigus Venti 39 °F
Frigus in quo Ros apparet 40 °F
Umor 89%
Rainfall 0.00 in
Snow Depth Not available.
UV 1 out of 12
Pollen Not available.
Air Quality Not available.
Flu Activity Not available.
METAR PAIK 281901Z AUTO 24006KT 10SM BKN003 BKN050 OVC080 06/04 A2988 RMK AO2 SLP158 T00610044 PNO $

10-Day Weather Forecast

×

Almanac

Astronomy

Aug. 28, 2015 Rise Set
Actual Time
Civil Twilight
Nautical Twilight
Astronomical Twilight
Moon
Length Of Visible Light
Length of Day
Tomorrow will be .
, % of the Moon is Illuminated

Today's Extremes

State Highs State Lows

Community

WunderPhotos

Upload Photos

1,850,458 photos uploaded!

WunderBlogs® & News

Nearby

Air Quality

  Air Quality AQ Index Pollutant
Not available.

Snow Depth

Station Depth Elevation

Earthquake Activity

City Distance Mag. Time & Date
Minimum magnitude displayed is 2.5.

Coastal Water Temperatures

Locus Calor

Stations

Nearby Weather Stations

Station Location Temp Frigus Venti Frigus in quo Ros apparet Umor Ventus Precip. Elev Renovata Type